Time;durP1;ratioP1;P1;durP2;ratioP2;P2;SDS_P1;SDS_P2;PMS_P1;PMS_P2;Temp;Humidity;BMP_temperature;BMP_pressure;BME280_temperature;BME280_humidity;BME280_pressure;Samples;Min_cycle;Max_cycle;Signal;HPM_P1;HPM_P2
2020/12/23 00:01:43;;;;;;;25.95;15.00;;;10.00;99.90;;;11.05;95.46;100470.28;4964933;29;20058;-83
2020/12/23 00:04:09;;;;;;;23.85;14.73;;;10.00;99.90;;;11.05;95.82;100465.50;4964386;29;20035;-82
2020/12/23 00:06:35;;;;;;;22.58;14.60;;;10.00;99.90;;;11.09;95.46;100457.19;4960277;29;20042;-82
2020/12/23 00:09:06;;;;;;;25.20;15.00;;;10.00;99.90;;;11.04;95.47;100458.28;4959717;29;20031;-83
2020/12/23 00:11:33;;;;;;;29.08;15.60;;;10.00;99.90;;;11.02;96.02;100452.25;4943778;29;20027;-83
2020/12/23 00:13:59;;;;;;;25.50;13.57;;;10.10;99.90;;;11.04;95.56;100444.31;4961102;29;20030;-83
2020/12/23 00:16:25;;;;;;;26.70;14.18;;;10.00;99.90;;;10.99;95.93;100439.03;4961791;29;20035;-83
2020/12/23 00:18:51;;;;;;;23.33;14.23;;;10.00;99.90;;;10.93;96.08;100437.69;4965437;28;20235;-82
2020/12/23 00:21:18;;;;;;;29.50;15.63;;;9.90;99.90;;;10.86;96.44;100417.97;4968204;29;20054;-83
2020/12/23 00:23:44;;;;;;;26.17;13.95;;;9.90;99.90;;;10.86;96.61;100417.16;4975144;29;20026;-82
2020/12/23 00:26:13;;;;;;;28.65;16.20;;;9.90;99.90;;;10.82;97.15;100425.47;4974725;29;20035;-82
2020/12/23 00:28:41;;;;;;;30.83;15.55;;;9.90;99.90;;;10.89;96.96;100434.00;4967963;28;20027;-82
2020/12/23 00:31:07;;;;;;;33.38;16.52;;;9.90;99.90;;;10.92;96.82;100424.06;4966735;29;20116;-82
2020/12/23 00:33:33;;;;;;;27.50;14.65;;;9.90;99.90;;;10.96;96.03;100427.75;4965803;29;20019;-82
2020/12/23 00:36:00;;;;;;;27.10;15.90;;;9.90;99.90;;;10.98;96.17;100425.44;4967968;29;20035;-82
2020/12/23 00:38:26;;;;;;;26.65;15.13;;;9.90;99.90;;;10.97;96.32;100427.41;4967248;28;20058;-82
2020/12/23 00:40:52;;;;;;;29.38;15.30;;;9.90;99.90;;;11.00;96.00;100420.28;4968158;28;20027;-80
2020/12/23 00:43:17;;;;;;;25.15;13.63;;;9.90;99.90;;;10.98;96.45;100429.00;4965208;29;20031;-83
2020/12/23 00:45:43;;;;;;;21.13;11.65;;;9.90;99.90;;;10.96;96.44;100423.00;4962627;29;20042;-80
2020/12/23 00:48:09;;;;;;;24.92;13.15;;;9.90;99.90;;;10.96;96.33;100414.59;4963119;28;20028;-83
2020/12/23 00:50:35;;;;;;;23.52;14.48;;;9.90;99.90;;;11.03;96.28;100425.13;4946433;29;20114;-82
2020/12/23 00:53:01;;;;;;;25.42;14.23;;;9.90;99.90;;;11.03;95.90;100430.72;4962000;29;20035;-83
2020/12/23 00:55:26;;;;;;;22.92;13.82;;;9.90;99.90;;;11.02;96.13;100431.88;4961563;29;20027;-82
2020/12/23 00:57:52;;;;;;;25.98;12.75;;;9.90;99.90;;;11.02;96.41;100435.50;4959981;28;20039;-82
2020/12/23 01:00:18;;;;;;;25.63;14.43;;;9.90;99.90;;;10.99;96.70;100429.81;4962107;29;20059;-82
2020/12/23 01:02:44;;;;;;;20.48;12.85;;;9.90;99.90;;;10.98;96.78;100429.00;4962186;29;20039;-83
2020/12/23 01:05:10;;;;;;;23.98;13.20;;;9.90;99.90;;;10.97;96.88;100432.19;4950785;29;20046;-80
2020/12/23 01:07:36;;;;;;;20.98;12.75;;;9.90;99.90;;;10.98;96.68;100431.81;4971687;29;20031;-82
2020/12/23 01:10:03;;;;;;;19.85;12.68;;;9.90;99.90;;;10.98;96.62;100419.84;4959266;28;20587;-82
2020/12/23 01:12:29;;;;;;;23.20;13.00;;;9.90;99.90;;;11.00;96.68;100425.88;4960150;29;20031;-81
2020/12/23 01:14:54;;;;;;;24.17;14.20;;;9.90;99.90;;;10.98;96.94;100428.22;4960513;29;20042;-81
2020/12/23 01:17:20;;;;;;;22.90;12.85;;;9.90;99.90;;;11.02;97.14;100440.28;4960971;29;20043;-81
2020/12/23 01:19:46;;;;;;;22.50;14.20;;;9.90;99.90;;;11.02;97.04;100435.50;4961503;28;20027;-81
2020/12/23 01:22:12;;;;;;;27.05;15.15;;;9.90;99.90;;;11.07;97.13;100434.41;4962360;29;20118;-83
2020/12/23 01:24:38;;;;;;;24.05;14.07;;;9.90;99.90;;;11.07;96.62;100440.81;4963017;29;20085;-82
2020/12/23 01:27:03;;;;;;;26.05;15.07;;;10.00;99.90;;;11.06;96.83;100441.97;4965089;29;20040;-83
2020/12/23 01:29:29;;;;;;;28.05;15.63;;;10.00;99.90;;;11.09;97.12;100448.81;4970644;28;20031;-82
2020/12/23 01:31:55;;;;;;;30.40;15.00;;;10.00;99.90;;;11.10;97.31;100445.66;4977214;29;20084;-79
2020/12/23 01:34:21;;;;;;;26.67;14.77;;;10.00;99.90;;;11.08;96.88;100452.78;4977131;29;20047;-80
2020/12/23 01:36:50;;;;;;;31.23;15.77;;;10.00;99.90;;;11.11;97.40;100454.84;4968134;29;20027;-80
2020/12/23 01:39:17;;;;;;;24.50;15.63;;;10.00;99.90;;;11.10;96.80;100450.44;4964350;28;20046;-83
2020/12/23 01:41:43;;;;;;;25.67;15.45;;;10.00;99.90;;;11.09;97.17;100452.44;4961008;29;20054;-81
2020/12/23 01:44:09;;;;;;;27.27;15.63;;;10.00;99.90;;;11.10;96.84;100467.22;4961860;29;20023;-83
2020/12/23 01:46:37;;;;;;;26.17;14.95;;;10.00;99.90;;;11.08;97.05;100466.75;4961793;29;20399;-79
2020/12/23 01:49:08;;;;;;;22.08;14.70;;;10.00;99.90;;;11.07;97.23;100463.19;4960050;29;20028;-80
2020/12/23 01:51:37;;;;;;;24.45;14.20;;;10.00;99.90;;;11.06;97.02;100467.13;4959513;28;20491;-81
2020/12/23 01:54:03;;;;;;;23.42;14.77;;;10.00;99.90;;;11.08;97.39;100469.53;4944147;29;20065;-83
2020/12/23 01:56:30;;;;;;;21.10;12.18;;;10.00;99.90;;;11.08;97.37;100469.53;4961512;29;20031;-82
2020/12/23 01:58:57;;;;;;;23.00;14.25;;;10.00;99.90;;;11.09;97.19;100465.59;4943059;29;20031;-82
2020/12/23 02:01:30;;;;;;;24.58;14.57;;;10.00;99.90;;;11.09;97.05;100466.41;4960554;29;20031;-82
2020/12/23 02:03:56;;;;;;;22.20;13.07;;;10.00;99.90;;;11.11;97.68;100478.00;4958951;29;20038;-83
2020/12/23 02:06:22;;;;;;;30.30;14.02;;;10.00;99.90;;;11.10;97.07;100467.22;4956671;29;20106;-83
2020/12/23 02:08:53;;;;;;;23.25;12.30;;;10.00;99.90;;;11.13;97.31;100474.06;4942219;29;20027;-84
2020/12/23 02:11:19;;;;;;;24.63;14.95;;;10.00;99.90;;;11.15;97.35;100466.09;4959454;29;20050;-83
2020/12/23 02:13:46;;;;;;;23.33;13.82;;;10.00;99.90;;;11.16;97.11;100462.13;4958857;29;20514;-82
2020/12/23 02:16:14;;;;;;;24.95;14.60;;;10.00;99.90;;;11.18;97.31;100457.78;4959608;29;20039;-80
2020/12/23 02:18:42;;;;;;;31.92;16.17;;;10.10;99.90;;;11.22;97.51;100458.69;4957735;29;20495;-83
2020/12/23 02:21:09;;;;;;;28.52;16.55;;;10.10;99.90;;;11.25;97.35;100459.94;4957934;29;20062;-81
2020/12/23 02:23:35;;;;;;;27.83;15.23;;;10.10;99.90;;;11.27;97.07;100454.81;4957799;29;20041;-83
2020/12/23 02:26:01;;;;;;;34.33;18.10;;;10.20;99.90;;;11.29;97.20;100441.25;4941972;29;20103;-81
2020/12/23 02:28:27;;;;;;;34.00;18.60;;;10.20;99.90;;;11.33;97.62;100448.53;4941603;29;20039;-83
2020/12/23 02:31:05;;;;;;;42.28;20.08;;;10.20;99.90;;;11.37;98.71;100451.38;4959528;29;20416;-82
2020/12/23 02:33:31;;;;;;;43.88;21.50;;;10.20;99.90;;;11.45;98.31;100458.75;4960299;29;20054;-84
2020/12/23 02:35:57;;;;;;;52.03;21.30;;;10.30;99.90;;;11.55;98.12;100466.56;4962317;29;20027;-83
2020/12/23 02:38:23;;;;;;;46.45;22.88;;;10.40;99.90;;;11.57;98.53;100451.03;4945093;29;20035;-82
2020/12/23 02:40:49;;;;;;;44.97;21.65;;;10.50;99.90;;;11.62;98.74;100453.50;4963974;29;20490;-84
2020/12/23 02:43:15;;;;;;;43.08;20.85;;;10.50;99.90;;;11.67;98.53;100446.00;4969474;29;20031;-82
2020/12/23 02:45:42;;;;;;;43.40;20.98;;;10.60;99.90;;;11.69;98.82;100430.47;4974454;29;20031;-83
2020/12/23 02:48:08;;;;;;;45.83;20.75;;;10.60;99.90;;;11.72;98.96;100445.75;4962888;28;20479;-84
2020/12/23 02:50:34;;;;;;;36.45;19.38;;;10.60;99.90;;;11.73;98.63;100431.38;4961041;29;20051;-79
2020/12/23 02:53:00;;;;;;;36.15;20.10;;;10.60;99.90;;;11.74;98.44;100424.59;4959376;29;20031;-80
2020/12/23 02:55:25;;;;;;;41.58;21.15;;;10.60;99.90;;;11.74;98.82;100421.81;4960072;29;20103;-82
2020/12/23 02:57:51;;;;;;;46.35;21.98;;;10.60;99.90;;;11.74;98.56;100415.41;4959031;28;20031;-83
2020/12/23 03:00:17;;;;;;;40.00;20.23;;;10.60;99.90;;;11.73;98.86;100410.97;4959508;29;20479;-83
2020/12/23 03:02:43;;;;;;;38.75;19.98;;;10.60;99.90;;;11.69;99.20;100402.47;4959928;28;20115;-79
2020/12/23 03:05:09;;;;;;;38.53;19.52;;;10.70;99.90;;;11.74;99.27;100399.44;4961564;29;20059;-82
2020/12/23 03:07:35;;;;;;;36.92;18.33;;;10.70;99.90;;;11.73;99.16;100400.59;4963078;29;20467;-82
2020/12/23 03:10:02;;;;;;;42.35;20.17;;;10.70;99.90;;;11.69;99.81;100396.09;4962407;28;20114;-84
2020/12/23 03:12:27;;;;;;;41.15;18.23;;;10.70;99.90;;;11.70;99.48;100392.94;4961192;29;20118;-84
2020/12/23 03:14:53;;;;;;;40.92;19.30;;;10.70;99.90;;;11.67;100.00;100388.06;4961209;29;20062;-82
2020/12/23 03:17:19;;;;;;;39.60;17.48;;;10.70;99.90;;;11.72;99.53;100384.97;4960458;29;20563;-80
2020/12/23 03:19:45;;;;;;;43.22;18.98;;;10.70;99.90;;;11.76;99.34;100390.66;4961677;28;20039;-81
2020/12/23 03:22:11;;;;;;;39.08;17.75;;;10.70;99.90;;;11.78;99.23;100388.31;4962121;29;20035;-85
2020/12/23 03:24:36;;;;;;;32.83;16.13;;;10.70;99.90;;;11.79;99.50;100393.50;4961226;29;20035;-82
2020/12/23 03:27:02;;;;;;;36.10;17.92;;;10.80;99.90;;;11.81;99.59;100404.34;4962022;29;20039;-84
2020/12/23 03:29:28;;;;;;;40.30;17.15;;;10.70;99.90;;;11.81;99.75;100384.75;4961599;28;20074;-83
2020/12/23 03:31:54;;;;;;;39.80;18.10;;;10.70;99.90;;;11.82;99.47;100380.75;4961831;29;20086;-81
2020/12/23 03:34:20;;;;;;;47.53;17.35;;;10.70;99.90;;;11.83;99.60;100382.38;4961000;29;20031;-81
2020/12/23 03:36:45;;;;;;;43.67;18.08;;;10.80;99.90;;;11.88;99.69;100382.09;4961973;29;20031;-82
2020/12/23 03:39:11;;;;;;;40.38;18.38;;;10.70;99.90;;;11.89;99.17;100383.69;4960485;29;20039;-84
2020/12/23 03:41:37;;;;;;;38.58;16.95;;;10.70;99.90;;;11.89;99.35;100384.50;4960451;29;20035;-83
2020/12/23 03:44:03;;;;;;;34.38;17.20;;;10.80;99.90;;;11.91;99.30;100381.34;4961991;29;20034;-84
2020/12/23 03:46:29;;;;;;;41.60;19.90;;;10.80;99.90;;;11.94;99.54;100383.38;4964752;29;20053;-80
2020/12/23 03:48:55;;;;;;;35.60;17.75;;;10.80;99.90;;;11.94;99.58;100380.59;4973609;28;20125;-82
2020/12/23 03:51:20;;;;;;;35.90;17.13;;;10.80;99.90;;;11.96;99.46;100372.63;4960849;29;20030;-83
2020/12/23 03:53:46;;;;;;;37.28;17.85;;;10.80;99.90;;;11.94;99.69;100375.00;4943552;29;20391;-84
2020/12/23 03:56:12;;;;;;;35.67;16.75;;;10.80;99.90;;;11.95;99.33;100368.19;4960170;29;20031;-82
2020/12/23 03:58:38;;;;;;;34.28;16.15;;;10.80;99.90;;;11.95;99.51;100369.00;4958636;29;20086;-82
2020/12/23 04:01:04;;;;;;;40.78;17.63;;;10.80;99.90;;;11.96;99.53;100367.84;4942674;29;20050;-82
2020/12/23 04:03:30;;;;;;;34.20;16.30;;;10.80;99.90;;;11.97;99.55;100368.66;4959270;29;20027;-81
2020/12/23 04:05:56;;;;;;;36.53;16.98;;;10.80;99.90;;;11.96;99.47;100367.84;4960011;29;20085;-82
2020/12/23 04:08:22;;;;;;;36.95;16.50;;;10.80;99.90;;;11.96;99.75;100373.44;4960150;28;20031;-82
2020/12/23 04:10:48;;;;;;;36.78;16.48;;;10.90;99.90;;;11.99;99.61;100377.47;4959891;29;20522;-81
2020/12/23 04:13:14;;;;;;;36.42;17.77;;;10.80;99.90;;;12.00;99.30;100368.72;4959493;29;20028;-81
2020/12/23 04:15:40;;;;;;;32.20;15.57;;;10.80;99.90;;;12.00;99.28;100367.91;4959040;28;20475;-84
2020/12/23 04:18:06;;;;;;;28.10;14.45;;;10.80;99.90;;;11.99;99.10;100378.28;4959603;28;20395;-82
2020/12/23 04:20:32;;;;;;;37.90;16.75;;;10.80;99.90;;;11.99;99.16;100366.28;4960171;29;20035;-83
2020/12/23 04:22:57;;;;;;;33.53;14.55;;;10.80;99.90;;;11.97;99.53;100360.25;4959393;29;20391;-83
2020/12/23 04:25:23;;;;;;;35.30;17.00;;;10.80;99.90;;;11.95;99.26;100363.41;4942230;29;20038;-83
2020/12/23 04:27:49;;;;;;;41.85;19.73;;;10.80;99.90;;;11.93;99.21;100370.56;4942167;28;20060;-81
2020/12/23 04:30:15;;;;;;;40.72;18.55;;;10.80;99.90;;;11.97;99.14;100363.88;4959708;29;20440;-83
2020/12/23 04:32:41;;;;;;;40.47;17.67;;;10.90;99.90;;;11.99;99.32;100358.69;4941499;29;20031;-81
2020/12/23 04:35:06;;;;;;;34.40;16.20;;;10.90;99.90;;;12.00;99.65;100359.50;4958968;29;20023;-81
2020/12/23 04:37:37;;;;;;;34.72;16.95;;;10.90;99.90;;;12.03;99.00;100359.56;4958937;29;20392;-84
2020/12/23 04:40:06;;;;;;;34.28;16.98;;;10.90;99.90;;;12.04;99.31;100360.38;4959131;28;20408;-83
2020/12/23 04:42:33;;;;;;;40.03;16.77;;;10.90;99.90;;;12.02;99.21;100354.31;4959550;29;20441;-81
2020/12/23 04:45:03;;;;;;;45.22;19.27;;;10.90;99.90;;;12.04;99.02;100357.56;4967553;29;20035;-83
2020/12/23 04:47:32;;;;;;;47.75;19.98;;;10.90;99.90;;;12.02;99.52;100357.94;4973463;29;20028;-81
2020/12/23 04:49:59;;;;;;;35.72;18.05;;;10.90;99.90;;;12.06;99.21;100349.59;4974145;28;20054;-80
2020/12/23 04:52:35;;;;;;;42.92;19.52;;;10.90;99.90;;;12.03;99.40;100350.34;4974901;29;20032;-80
2020/12/23 04:55:06;;;;;;;36.42;17.90;;;10.90;99.90;;;12.05;99.15;100359.16;4971115;29;20178;-81
2020/12/23 04:57:36;;;;;;;40.35;18.60;;;10.90;99.90;;;12.04;99.25;100357.56;4962750;29;20039;-81
2020/12/23 05:00:06;;;;;;;37.97;18.30;;;10.90;99.90;;;12.03;99.33;100353.97;4963486;28;20027;-82
2020/12/23 05:02:32;;;;;;;39.17;19.95;;;10.90;99.90;;;12.03;99.32;100355.94;4973346;29;20058;-81
2020/12/23 05:04:59;;;;;;;34.20;18.65;;;10.90;99.90;;;12.07;99.46;100365.22;4977631;29;20026;-83
2020/12/23 05:07:24;;;;;;;35.72;18.25;;;10.90;99.90;;;12.08;98.95;100352.81;4971693;28;20173;-81
2020/12/23 05:09:51;;;;;;;37.55;17.63;;;10.90;99.90;;;12.10;99.12;100350.47;4958927;29;20066;-81
2020/12/23 05:12:21;;;;;;;38.67;20.75;;;11.00;99.90;;;12.10;99.21;100356.06;4941627;29;20032;-81
2020/12/23 05:14:47;;;;;;;37.95;18.35;;;10.90;99.90;;;12.10;99.28;100350.47;4958909;29;20050;-81
2020/12/23 05:17:17;;;;;;;36.35;18.73;;;10.90;99.90;;;12.12;99.11;100354.50;4958162;29;20090;-83
2020/12/23 05:19:46;;;;;;;41.17;19.90;;;11.00;99.90;;;12.10;99.31;100345.66;4941612;29;20550;-83
2020/12/23 05:22:16;;;;;;;39.35;18.83;;;11.00;99.90;;;12.07;98.99;100342.81;4970779;29;20122;-81
2020/12/23 05:24:42;;;;;;;41.03;19.15;;;11.00;99.90;;;12.05;99.33;100343.19;4972200;29;20193;-83
2020/12/23 05:27:10;;;;;;;39.67;18.90;;;11.00;99.90;;;12.06;99.00;100339.22;4971572;28;20066;-79
2020/12/23 05:29:36;;;;;;;43.15;20.02;;;10.90;99.90;;;12.02;99.12;100337.53;4952770;29;20027;-84
2020/12/23 05:32:04;;;;;;;35.20;20.02;;;10.90;99.90;;;11.99;99.53;100341.91;4971199;29;20115;-82
2020/12/23 05:34:35;;;;;;;43.50;21.25;;;10.90;99.90;;;11.98;99.60;100329.06;4969231;29;20055;-83
2020/12/23 05:37:03;;;;;;;39.90;20.67;;;10.90;99.90;;;12.02;99.82;100332.75;4968059;29;20031;-82
2020/12/23 05:39:31;;;;;;;39.83;20.58;;;10.90;99.90;;;12.02;99.26;100338.34;4966661;28;20035;-83
2020/12/23 05:42:00;;;;;;;41.65;19.95;;;10.90;99.90;;;11.99;100.00;100341.09;4942665;29;20055;-84
2020/12/23 05:44:29;;;;;;;38.97;20.65;;;10.90;99.90;;;11.99;99.75;100330.69;4941467;29;20039;-82
2020/12/23 05:46:56;;;;;;;45.35;20.90;;;10.90;99.90;;;11.99;100.00;100336.28;4957983;29;20459;-83
2020/12/23 05:49:25;;;;;;;40.65;19.65;;;11.00;99.90;;;11.96;100.00;100325.84;4959069;28;20030;-83
2020/12/23 05:51:53;;;;;;;46.58;21.35;;;10.90;99.90;;;11.96;100.00;100334.25;4958522;29;20023;-84
2020/12/23 05:54:22;;;;;;;47.83;22.10;;;10.90;99.90;;;12.00;100.00;100323.13;4959123;29;20051;-84
2020/12/23 05:56:52;;;;;;;38.85;19.95;;;10.90;99.90;;;11.99;100.00;100316.69;4959034;29;20031;-84
2020/12/23 05:59:20;;;;;;;42.92;20.70;;;10.90;99.90;;;12.05;99.92;100328.38;4958400;28;20039;-85
2020/12/23 06:01:49;;;;;;;43.20;20.63;;;11.00;99.90;;;12.03;99.95;100327.97;4960572;29;20031;-80
2020/12/23 06:04:17;;;;;;;43.70;21.27;;;11.00;99.90;;;12.01;99.99;100331.13;4949102;29;20337;-81
2020/12/23 06:06:45;;;;;;;40.88;21.42;;;11.00;99.90;;;11.94;100.00;100328.22;4967050;29;20031;-81
2020/12/23 06:09:15;;;;;;;45.55;21.80;;;11.00;99.90;;;11.96;100.00;100328.66;4964844;29;20057;-84
2020/12/23 06:11:50;;;;;;;42.08;20.48;;;11.00;99.90;;;11.90;100.00;100313.38;4964249;29;20341;-82
2020/12/23 06:14:31;;;;;;;43.53;20.95;;;11.00;99.90;;;11.91;100.00;100309.38;4962768;29;20046;-83
2020/12/23 06:17:00;;;;;;;40.72;20.25;;;11.00;99.90;;;11.91;100.00;100302.97;4963309;29;20098;-84
2020/12/23 06:19:36;;;;;;;45.05;21.20;;;10.90;99.90;;;11.84;100.00;100303.69;4959021;29;20117;-85
2020/12/23 06:22:10;;;;;;;41.28;19.60;;;10.90;99.90;;;11.83;100.00;100299.25;4958140;29;20031;-83
2020/12/23 06:24:39;;;;;;;40.63;20.27;;;10.90;99.90;;;11.87;100.00;100297.31;4956151;29;20379;-83
2020/12/23 06:27:09;;;;;;;38.33;19.38;;;10.90;99.90;;;11.79;100.00;100291.97;4940562;29;20039;-85
2020/12/23 06:29:44;;;;;;;40.72;18.80;;;10.90;99.90;;;11.81;100.00;100293.22;4961012;28;20086;-80
2020/12/23 06:32:23;;;;;;;33.97;18.00;;;11.00;99.90;;;11.81;100.00;100289.63;4966552;29;20174;-84
2020/12/23 06:35:03;;;;;;;35.22;17.05;;;10.90;99.90;;;11.89;100.00;100289.34;4940395;29;20539;-84
2020/12/23 06:37:33;;;;;;;37.60;17.60;;;10.90;99.90;;;11.91;100.00;100289.78;4957477;28;20042;-84
2020/12/23 06:40:07;;;;;;;36.13;16.77;;;11.00;99.90;;;11.92;100.00;100282.19;4945830;29;20039;-82
2020/12/23 06:42:33;;;;;;;27.30;14.98;;;11.00;99.90;;;11.89;100.00;100280.97;4946672;29;20035;-83
2020/12/23 06:45:06;;;;;;;27.27;14.50;;;11.00;99.90;;;11.92;100.00;100283.00;4964649;29;20038;-82
2020/12/23 06:47:35;;;;;;;24.65;12.20;;;11.00;99.90;;;11.94;100.00;100275.06;4962625;29;20372;-84
2020/12/23 06:50:12;;;;;;;23.60;13.57;;;11.00;99.90;;;11.93;100.00;100278.22;4964006;28;20055;-82
2020/12/23 06:52:45;;;;;;;23.67;13.20;;;11.00;99.90;;;11.95;100.00;100264.63;4966694;29;20051;-82
2020/12/23 06:55:17;;;;;;;22.33;12.52;;;11.00;99.90;;;12.01;100.00;100266.75;4965490;29;20180;-80
2020/12/23 06:57:44;;;;;;;23.27;12.23;;;11.00;99.90;;;11.99;100.00;100265.50;4960907;28;20027;-84
2020/12/23 07:00:25;;;;;;;21.90;11.35;;;11.10;99.90;;;11.95;100.00;100259.03;4960363;29;20107;-85
2020/12/23 07:03:01;;;;;;;14.52;9.82;;;11.00;99.90;;;11.94;100.00;100269.47;4959818;29;20039;-82
2020/12/23 07:05:27;;;;;;;16.75;8.77;;;11.00;99.90;;;12.07;100.00;100267.25;4944481;29;20035;-83
2020/12/23 07:08:07;;;;;;;12.27;7.53;;;11.00;99.90;;;11.98;100.00;100259.09;4960816;28;20027;-85
2020/12/23 07:10:44;;;;;;;11.68;6.95;;;11.00;99.90;;;12.08;100.00;100263.25;4960177;29;20028;-85
2020/12/23 07:13:22;;;;;;;10.98;7.10;;;11.10;99.90;;;11.99;100.00;100265.50;4950884;29;20032;-85
2020/12/23 07:15:59;;;;;;;13.05;7.10;;;11.10;99.90;;;12.03;100.00;100267.19;4943500;29;20027;-85
2020/12/23 07:18:29;;;;;;;13.85;7.60;;;11.10;99.90;;;12.07;100.00;100270.03;4945411;29;20059;-85
2020/12/23 07:20:59;;;;;;;10.30;6.35;;;11.10;99.90;;;12.11;100.00;100274.50;4944552;29;20260;-84
2020/12/23 07:23:32;;;;;;;8.45;6.07;;;11.10;99.90;;;12.11;100.00;100260.50;4955594;29;20235;-85
2020/12/23 07:26:05;;;;;;;12.40;7.43;;;11.10;99.90;;;12.02;100.00;100270.34;4971726;28;20038;-82
2020/12/23 07:28:40;;;;;;;11.43;7.30;;;11.10;99.90;;;12.05;100.00;100269.59;4952969;29;20031;-82
2020/12/23 07:31:11;;;;;;;11.25;6.25;;;11.10;99.90;;;12.13;100.00;100263.75;4964234;29;20027;-83
2020/12/23 07:33:39;;;;;;;9.77;6.25;;;11.10;99.90;;;12.11;100.00;100271.69;4964506;29;20045;-83
2020/12/23 07:36:07;;;;;;;13.35;7.28;;;11.10;99.90;;;12.14;99.93;100267.31;4964696;29;20043;-84
2020/12/23 07:38:38;;;;;;;12.15;8.02;;;11.10;99.90;;;12.12;100.00;100281.72;4963441;29;20387;-85
2020/12/23 07:41:05;;;;;;;12.43;6.30;;;11.10;99.90;;;12.19;99.81;100283.00;4962181;29;20035;-84
2020/12/23 07:43:31;;;;;;;14.02;8.15;;;11.10;99.90;;;12.10;100.00;100270.06;4967686;28;20047;-85
2020/12/23 07:45:57;;;;;;;13.02;7.93;;;11.10;99.90;;;12.07;100.00;100265.22;4944171;29;20046;-82
2020/12/23 07:48:28;;;;;;;11.00;7.55;;;11.20;99.90;;;12.08;100.00;100257.66;4960334;28;20472;-84
2020/12/23 07:50:57;;;;;;;12.13;6.95;;;11.10;99.90;;;12.08;100.00;100264.06;4962692;28;20034;-86
2020/12/23 07:53:28;;;;;;;9.25;6.07;;;11.20;99.90;;;12.08;100.00;100263.25;4961492;29;20023;-85
2020/12/23 07:56:07;;;;;;;10.38;6.30;;;11.20;99.90;;;12.17;100.00;100255.38;4965653;29;20054;-83
2020/12/23 07:58:37;;;;;;;7.82;6.15;;;11.20;99.90;;;12.17;99.91;100260.19;4944273;29;20032;-85
2020/12/23 08:01:08;;;;;;;9.68;6.55;;;11.30;99.90;;;12.15;99.60;100264.16;4946409;29;20027;-84
2020/12/23 08:03:34;;;;;;;8.88;5.22;;;11.30;99.90;;;12.25;99.51;100256.28;4944652;29;20044;-84
2020/12/23 08:06:12;;;;;;;7.22;4.57;;;11.30;99.90;;;12.32;98.65;100268.41;4947442;29;20066;-84
2020/12/23 08:08:45;;;;;;;8.18;4.55;;;11.40;99.90;;;12.35;97.90;100259.25;4947561;29;20043;-85
2020/12/23 08:11:15;;;;;;;6.75;4.03;;;11.40;99.90;;;12.34;97.79;100254.00;4950863;29;20043;-83
2020/12/23 08:13:43;;;;;;;4.72;3.28;;;11.40;99.90;;;12.38;97.65;100255.69;4949033;29;20035;-84
2020/12/23 08:16:15;;;;;;;6.25;3.17;;;11.50;99.90;;;12.39;98.00;100256.50;4947011;29;20035;-83
2020/12/23 08:18:43;;;;;;;6.10;3.60;;;11.50;99.90;;;12.32;97.94;100251.59;4947128;29;20023;-83
2020/12/23 08:21:17;;;;;;;6.45;3.45;;;11.50;99.90;;;12.37;97.95;100247.66;4964160;29;20027;-84
2020/12/23 08:23:46;;;;;;;5.45;3.55;;;11.50;99.90;;;12.39;97.36;100251.72;4947550;29;20063;-82
2020/12/23 08:26:15;;;;;;;5.40;3.50;;;11.50;99.90;;;12.43;97.57;100246.13;4958630;29;20586;-84
2020/12/23 08:28:43;;;;;;;6.65;4.40;;;11.50;99.90;;;12.45;97.34;100238.16;4940542;29;20027;-84
2020/12/23 08:31:22;;;;;;;6.68;4.00;;;11.60;99.90;;;12.46;97.26;100232.16;4958008;29;20118;-82
2020/12/23 08:33:56;;;;;;;7.20;4.20;;;11.60;99.90;;;12.37;97.63;100225.25;4964178;29;20058;-83
2020/12/23 08:36:24;;;;;;;5.35;3.53;;;11.60;99.90;;;12.45;96.60;100230.56;4962548;29;20042;-82
2020/12/23 08:38:49;;;;;;;6.28;3.28;;;11.70;99.90;;;12.47;96.33;100224.56;4945905;29;20046;-84
2020/12/23 08:41:21;;;;;;;6.97;3.10;;;11.70;99.90;;;12.49;96.21;100216.63;4946136;29;20035;-84
2020/12/23 08:43:50;;;;;;;9.23;3.50;;;11.70;99.90;;;12.52;96.38;100219.44;4963517;29;20087;-84
2020/12/23 08:46:27;;;;;;;6.55;3.13;;;11.70;99.90;;;12.59;95.52;100221.53;4945239;29;20031;-84
2020/12/23 08:48:55;;;;;;;5.05;2.85;;;11.70;99.90;;;12.60;95.23;100217.53;4944499;29;20375;-84
2020/12/23 08:51:25;;;;;;;4.90;3.25;;;11.70;99.90;;;12.59;95.54;100210.31;4945488;29;20114;-84
2020/12/23 08:53:57;;;;;;;5.38;3.10;;;11.60;99.90;;;12.60;95.73;100203.53;4961225;29;20023;-83
2020/12/23 08:56:31;;;;;;;7.82;4.13;;;11.60;99.90;;;12.52;95.90;100199.06;4960892;29;20058;-83
2020/12/23 08:59:08;;;;;;;6.20;3.67;;;11.60;99.90;;;12.52;96.34;100190.66;4961490;28;20058;-85
2020/12/23 09:01:35;;;;;;;6.13;3.42;;;11.50;99.90;;;12.53;95.92;100186.63;4962349;28;20090;-85
2020/12/23 09:04:09;;;;;;;7.75;3.30;;;11.60;99.90;;;12.46;96.52;100184.56;4944970;29;20031;-83
2020/12/23 09:06:44;;;;;;;9.10;3.05;;;11.50;99.90;;;12.52;96.20;100180.22;4944656;29;20055;-84
2020/12/23 09:09:22;;;;;;;6.30;3.08;;;11.60;99.90;;;12.47;96.14;100180.56;4945893;29;20037;-83
2020/12/23 09:11:54;;;;;;;5.72;3.20;;;11.50;99.90;;;12.55;96.01;100184.28;4946837;29;20031;-86
2020/12/23 09:14:38;;;;;;;8.13;3.25;;;11.50;99.90;;;12.52;96.37;100180.22;4945484;29;20026;-85
2020/12/23 09:17:24;;;;;;;7.03;3.50;;;11.60;99.90;;;12.53;96.58;100197.84;4967090;29;20019;-82
2020/12/23 09:20:00;;;;;;;6.78;2.95;;;11.50;99.90;;;12.67;95.63;100193.22;4950737;29;20125;-82
2020/12/23 09:22:41;;;;;;;4.28;2.58;;;11.60;99.90;;;12.73;95.35;100195.66;4959560;29;20556;-84
2020/12/23 09:25:21;;;;;;;3.90;2.40;;;11.60;99.90;;;12.72;95.22;100196.84;4941574;29;20035;-84
2020/12/23 09:28:14;;;;;;;6.00;3.08;;;11.70;99.90;;;12.61;96.28;100203.16;4958165;28;20039;-83
2020/12/23 09:30:51;;;;;;;5.22;2.70;;;11.70;99.90;;;12.77;95.36;100204.94;4958059;29;20101;-83
2020/12/23 09:33:23;;;;;;;4.18;2.72;;;11.70;99.90;;;12.81;94.99;100209.38;4942842;29;20035;-83
2020/12/23 09:36:03;;;;;;;3.55;2.30;;;11.70;99.90;;;12.86;94.90;100200.63;4956326;29;20023;-83
2020/12/23 09:38:35;;;;;;;4.95;2.05;;;11.80;99.90;;;12.91;94.53;100211.47;4941376;29;20408;-82
2020/12/23 09:41:07;;;;;;;4.75;2.53;;;11.90;99.90;;;12.94;94.88;100201.53;4957494;29;20068;-83
2020/12/23 09:43:36;;;;;;;3.22;1.77;;;11.90;99.90;;;13.13;94.23;100198.53;4961265;29;20059;-85
2020/12/23 09:46:08;;;;;;;2.33;1.75;;;12.10;99.90;;;13.26;92.87;100202.63;4961257;29;20391;-83
2020/12/23 09:48:35;;;;;;;3.15;1.65;;;12.20;99.90;;;13.53;92.68;100194.84;4962702;28;20034;-84
2020/12/23 09:51:03;;;;;;;2.10;1.58;;;12.40;99.90;;;13.62;91.14;100195.31;4975153;29;20028;-82
2020/12/23 09:53:29;;;;;;;2.67;1.70;;;12.60;99.90;;;13.67;90.94;100189.38;4964578;29;20388;-84
2020/12/23 09:55:55;;;;;;;1.73;1.60;;;12.70;99.90;;;13.84;89.98;100199.88;4958669;29;20086;-83
2020/12/23 09:58:22;;;;;;;2.88;1.20;;;12.80;99.90;;;13.89;89.29;100201.53;4956620;28;20081;-84
2020/12/23 10:00:51;;;;;;;1.05;0.80;;;12.90;99.90;;;13.86;90.26;100193.91;4958408;29;20468;-82
2020/12/23 10:03:17;;;;;;;0.93;0.70;;;12.90;99.90;;;14.02;89.21;100197.22;4958882;29;20034;-84
2020/12/23 10:05:42;;;;;;;2.15;0.80;;;12.90;99.90;;;13.84;89.32;100185.84;4941014;29;20059;-84
2020/12/23 10:08:08;;;;;;;1.10;0.80;;;12.90;99.90;;;13.93;89.06;100177.91;4941611;29;20487;-84
2020/12/23 10:10:36;;;;;;;1.67;0.70;;;13.00;99.90;;;13.94;88.90;100176.69;4958929;29;20056;-84